Lic. Miguel de la Madrid Airport


Codes: MMIA/CLQ
Name: Lic. Miguel de la Madrid Airport
City: Colima
Country: Mexico
Elevation: 2467 ft.
Wikipedia:

Photos at Lic. Miguel de la Madrid Airport


   Photos courtesy of SpottingLog. You can add your own sightings and photos by signing up for a free trial today.



No photos found.

Weather at Lic. Miguel de la Madrid Airport


Time (UTC)DescriptionTempratureWindCloud coverageVisibilityPressureHumidity
16-Jun-2024 00:00Light Rain30°C7 mph, SW28%10000m1006hPa59%
16-Jun-2024 03:00Light Rain28°C2 mph, S23%10000m1007hPa66%
16-Jun-2024 06:00Scattered Clouds25°C2 mph, SW31%10000m1009hPa77%
16-Jun-2024 09:00Light Rain21°C2 mph, NE72%10000m1009hPa93%
16-Jun-2024 12:00Scattered Clouds21°C2 mph, NE43%10000m1008hPa89%
16-Jun-2024 15:00Clear Sky27°C4 mph, SW0%10000m1009hPa64%
16-Jun-2024 18:00Clear Sky31°C7 mph, SW0%10000m1006hPa48%
16-Jun-2024 21:00Clear Sky34°C13 mph, SW0%10000m1003hPa43%
17-Jun-2024 00:00Light Rain27°C9 mph, SW0%10000m1003hPa67%
17-Jun-2024 03:00Light Rain23°C4 mph, S78%10000m1007hPa87%
17-Jun-2024 06:00Light Rain21°C2 mph, S88%6269m1009hPa94%
17-Jun-2024 09:00Light Rain21°C2 mph, S99%10000m1008hPa93%
17-Jun-2024 12:00Overcast Clouds21°C2 mph, SW99%10000m1007hPa92%
17-Jun-2024 15:00Broken Clouds25°C2 mph, SW56%10000m1007hPa73%
17-Jun-2024 18:00Scattered Clouds31°C7 mph, SW46%10000m1006hPa49%
17-Jun-2024 21:00Clear Sky32°C11 mph, SW2%10000m1003hPa45%
18-Jun-2024 00:00Light Rain25°C7 mph, SW21%10000m1005hPa72%
18-Jun-2024 03:00Light Rain22°C4 mph, S96%10000m1007hPa88%
18-Jun-2024 06:00Light Rain21°C2 mph, S98%10000m1009hPa91%
18-Jun-2024 09:00Light Rain21°C2 mph, S100%10000m1008hPa92%
18-Jun-2024 12:00Light Rain21°C0 mph, S100%10000m1007hPa91%
18-Jun-2024 15:00Overcast Clouds23°C2 mph, SW99%10000m1008hPa80%
18-Jun-2024 18:00Overcast Clouds30°C4 mph, SW96%10000m1006hPa52%
18-Jun-2024 21:00Broken Clouds33°C11 mph, SW77%10000m1003hPa42%
19-Jun-2024 00:00Broken Clouds27°C9 mph, SW72%10000m1003hPa63%
19-Jun-2024 03:00Light Rain21°C2 mph, S86%10000m1007hPa85%
19-Jun-2024 06:00Overcast Clouds21°C2 mph, SE93%10000m1008hPa87%
19-Jun-2024 09:00Overcast Clouds20°C2 mph, S100%10000m1007hPa88%
19-Jun-2024 12:00Overcast Clouds20°C2 mph, SW99%10000m1007hPa89%
19-Jun-2024 15:00Broken Clouds24°C4 mph, SW68%10000m1007hPa70%
19-Jun-2024 18:00Broken Clouds30°C7 mph, SW65%10000m1005hPa51%
19-Jun-2024 21:00Broken Clouds31°C11 mph, SW60%10000m1002hPa46%
20-Jun-2024 00:00Broken Clouds26°C9 mph, SW65%10000m1002hPa65%
20-Jun-2024 03:00Overcast Clouds22°C2 mph, S89%10000m1006hPa82%
20-Jun-2024 06:00Overcast Clouds22°C2 mph, S94%10000m1006hPa85%
20-Jun-2024 09:00Overcast Clouds21°C2 mph, SW94%10000m1005hPa89%
20-Jun-2024 12:00Overcast Clouds20°C2 mph, SW92%10000m1005hPa91%
20-Jun-2024 15:00Overcast Clouds25°C4 mph, SW100%10000m1006hPa70%
20-Jun-2024 18:00Overcast Clouds29°C7 mph, SW100%10000m1004hPa52%
20-Jun-2024 21:00Overcast Clouds31°C11 mph, SW100%10000m1002hPa49%